Florence, Italy
Current Conditions -  °F | °C
As of 11:50 AM on Saturday 25 Oct 2014 (Local Time) from LIRQ Reporting Station
Clear Clear  
Wind Chill: 64°   Ceiling: Unl
Heat Index: 64°   Visibility: 6mi
Dew Point: 45°   Wind: 12mph
Humidity: 49%   Direction: 30°NNE
Pressure: 30.09"   Gusts: NA
Location:  43.77°N, 11.26°E
Report Text: LIRQ 250950Z 03010KT 360V090 CAVOK 18/07 Q1019
Loading
Personal Weather Stations






























Interactive Weather Map
Tropical Storm Tracking
New forecast layout! Learn more

10-Day Weather Forecast

Advertisements
Track Severe Weather on mobile